createdAt,value
2016-12-16T00:00:04.877Z,87.3
2016-12-16T00:05:04.948Z,87.11
2016-12-16T00:10:04.796Z,87.11
2016-12-16T00:15:04.558Z,86.91
2016-12-16T00:20:05.094Z,86.87
2016-12-16T00:25:05.102Z,86.59
2016-12-16T00:30:04.526Z,86.3
2016-12-16T00:35:05.010Z,86.3
2016-12-16T00:40:04.650Z,85.83
2016-12-16T00:45:04.943Z,85.93
2016-12-16T00:50:04.443Z,85.83
2016-12-16T00:55:05.276Z,85.74
2016-12-16T01:00:04.372Z,85.64
2016-12-16T01:05:05.160Z,85.55
2016-12-16T01:10:05.134Z,85.74
2016-12-16T01:15:04.845Z,85.83
2016-12-16T01:20:05.332Z,85.83
2016-12-16T01:25:05.176Z,86.3
2016-12-16T01:30:04.706Z,86.3
2016-12-16T01:35:05.388Z,86.68
2016-12-16T01:40:05.531Z,86.87
2016-12-16T01:45:04.843Z,87.16
2016-12-16T01:50:05.339Z,87.3
2016-12-16T01:55:04.846Z,86.93
2016-12-16T02:00:04.587Z,86.74
2016-12-16T02:05:05.294Z,86.55
2016-12-16T02:10:04.314Z,86.35
2016-12-16T02:15:04.934Z,86.07
2016-12-16T02:20:05.431Z,85.78
2016-12-16T02:25:05.118Z,85.5
2016-12-16T02:30:04.959Z,85.03
2016-12-16T02:35:04.526Z,84.65
2016-12-16T02:40:04.351Z,84.27
2016-12-16T02:45:04.846Z,83.94
2016-12-16T02:50:04.643Z,83.56
2016-12-16T02:55:04.554Z,83.09
2016-12-16T03:00:05.935Z,82.62
2016-12-16T03:05:07.490Z,82.43
2016-12-16T03:10:04.867Z,82.43
2016-12-16T03:15:04.645Z,81.86
2016-12-16T03:20:04.407Z,81.29
2016-12-16T03:25:04.923Z,80.91
2016-12-16T03:30:04.967Z,80.63
2016-12-16T03:35:04.733Z,80.15
2016-12-16T03:40:04.603Z,79.49
2016-12-16T03:45:05.255Z,79.21
2016-12-16T03:50:04.705Z,79.02
2016-12-16T03:55:04.417Z,78.54
2016-12-16T04:00:05.399Z,78.26
2016-12-16T04:05:05.032Z,77.97
2016-12-16T04:10:04.636Z,77.69
2016-12-16T04:15:04.450Z,77.27
2016-12-16T04:20:05.150Z,76.7
2016-12-16T04:25:04.980Z,76.23
2016-12-16T04:30:05.254Z,75.85
2016-12-16T04:35:05.147Z,75.47
2016-12-16T04:40:04.922Z,75.28
2016-12-16T04:45:05.064Z,75.47
2016-12-16T04:50:04.514Z,75.38
2016-12-16T04:55:05.250Z,75.28
2016-12-16T05:00:05.450Z,75
2016-12-16T05:05:05.170Z,74.71
2016-12-16T05:10:05.344Z,74.52
2016-12-16T05:15:04.501Z,74.24
2016-12-16T05:20:04.896Z,73.96
2016-12-16T05:25:05.426Z,73.68
2016-12-16T05:30:04.907Z,73.39
2016-12-16T05:35:04.854Z,72.92
2016-12-16T05:40:04.649Z,72.63
2016-12-16T05:45:05.084Z,72.25
2016-12-16T05:50:04.529Z,72.06
2016-12-16T05:55:05.075Z,71.78
2016-12-16T06:00:04.357Z,71.59
2016-12-16T06:05:04.590Z,71.69
2016-12-16T06:10:04.976Z,71.5
2016-12-16T06:15:04.511Z,71.4
2016-12-16T06:20:04.585Z,71.02
2016-12-16T06:25:04.823Z,70.93
2016-12-16T06:30:04.828Z,70.45
2016-12-16T06:35:05.336Z,70.17
2016-12-16T06:40:05.112Z,70.07
2016-12-16T06:45:04.829Z,70.07
2016-12-16T06:50:04.816Z,69.76
2016-12-16T06:55:04.862Z,69.57
2016-12-16T07:00:04.595Z,69.57
2016-12-16T07:05:04.635Z,69.28
2016-12-16T07:10:04.504Z,69.09
2016-12-16T07:15:04.769Z,68.81
2016-12-16T07:20:04.744Z,68.71
2016-12-16T07:25:04.890Z,68.62
2016-12-16T07:30:05.077Z,68.62
2016-12-16T07:35:05.115Z,68.43
2016-12-16T07:40:04.646Z,68.33
2016-12-16T07:45:04.461Z,68.05
2016-12-16T07:50:05.236Z,68.05
2016-12-16T07:55:05.215Z,67.96
2016-12-16T08:00:04.613Z,68.18
2016-12-16T08:05:05.062Z,68.37
2016-12-16T08:10:04.510Z,68.46
2016-12-16T08:15:04.924Z,68.27
2016-12-16T08:20:04.680Z,69.17
2016-12-16T08:25:04.415Z,71.44
2016-12-16T08:30:05.157Z,74.56
2016-12-16T08:35:04.470Z,76.93
2016-12-16T08:40:04.413Z,81.62
2016-12-16T08:45:05.132Z,85.31
2016-12-16T08:50:04.989Z,90
2016-12-16T08:55:04.759Z,95.03
2016-12-16T09:00:04.887Z,99.99
2016-12-16T09:05:04.418Z,99.99
2016-12-16T09:10:04.376Z,99.99
2016-12-16T09:15:05.050Z,99.99
2016-12-16T09:20:04.385Z,99.99
2016-12-16T09:25:04.947Z,99.99
2016-12-16T09:30:04.452Z,99.99
2016-12-16T09:35:04.381Z,99.99
2016-12-16T09:40:04.364Z,99.99
2016-12-16T09:45:04.999Z,99.99
2016-12-16T09:50:05.383Z,99.99
2016-12-16T09:55:04.585Z,99.99
2016-12-16T10:00:04.796Z,99.99
2016-12-16T10:05:04.673Z,99.99
2016-12-16T10:10:05.141Z,99.99
2016-12-16T10:15:04.951Z,99.99
2016-12-16T10:20:05.206Z,99.99
2016-12-16T10:25:05.139Z,99.99
2016-12-16T10:30:04.413Z,99.99
2016-12-16T10:35:04.635Z,99.99
2016-12-16T10:40:05.089Z,99.99
2016-12-16T10:45:04.421Z,99.99
2016-12-16T10:50:04.393Z,99.99
2016-12-16T10:55:04.857Z,99.99
2016-12-16T11:00:05.315Z,99.99
2016-12-16T11:05:04.676Z,99.99
2016-12-16T11:10:05.034Z,99.99
2016-12-16T11:15:04.476Z,99.99
2016-12-16T11:20:04.905Z,99.99
2016-12-16T11:25:04.705Z,99.99
2016-12-16T11:30:05.194Z,99.99
2016-12-16T11:35:04.921Z,99.99
2016-12-16T11:40:05.315Z,99.99
2016-12-16T11:45:05.063Z,99.99
2016-12-16T11:50:04.484Z,99.99
2016-12-16T11:55:05.089Z,99.99
2016-12-16T12:00:04.900Z,99.99
2016-12-16T12:05:04.485Z,99.99
2016-12-16T12:10:05.236Z,99.99
2016-12-16T12:15:04.600Z,99.99
2016-12-16T12:20:05.022Z,99.99
2016-12-16T12:25:04.695Z,99.99
2016-12-16T12:30:04.731Z,99.99
2016-12-16T12:35:04.996Z,99.99
2016-12-16T12:40:04.671Z,99.99
2016-12-16T12:45:05.275Z,99.99
2016-12-16T12:50:05.083Z,99.99
2016-12-16T12:55:04.721Z,99.99
2016-12-16T13:00:05.451Z,99.99
2016-12-16T13:05:05.056Z,99.99
2016-12-16T13:10:04.308Z,99.99
2016-12-16T13:15:04.721Z,99.99
2016-12-16T13:20:04.266Z,99.99
2016-12-16T13:25:04.903Z,99.99
2016-12-16T13:30:05.062Z,99.99
2016-12-16T13:35:04.809Z,99.99
2016-12-16T13:40:04.428Z,99.99
2016-12-16T13:45:04.542Z,99.99
2016-12-16T13:50:04.564Z,99.99
2016-12-16T13:55:04.920Z,99.99
2016-12-16T14:00:04.987Z,99.99
2016-12-16T14:05:04.823Z,99.99
2016-12-16T14:10:05.296Z,99.99
2016-12-16T14:15:04.864Z,99.99
2016-12-16T14:20:04.739Z,99.99
2016-12-16T14:25:04.510Z,99.99
2016-12-16T14:30:04.553Z,99.99
2016-12-16T14:35:04.852Z,99.99
2016-12-16T14:50:04.592Z,99.99
2016-12-16T14:55:04.756Z,99.99
2016-12-16T15:00:05.243Z,99.99
2016-12-16T15:05:04.419Z,99.99
2016-12-16T15:10:04.603Z,99.99
2016-12-16T15:15:05.065Z,99.99
2016-12-16T15:20:04.869Z,99.99
2016-12-16T15:25:05.031Z,99.99
2016-12-16T15:30:04.730Z,99.99
2016-12-16T15:35:04.973Z,99.99
2016-12-16T15:40:05.036Z,99.99
2016-12-16T15:45:05.354Z,99.99
2016-12-16T15:50:04.912Z,99.99
2016-12-16T15:55:05.352Z,99.99
2016-12-16T16:00:04.616Z,99.99
2016-12-16T16:05:04.470Z,99.99
2016-12-16T16:10:04.409Z,99.99
2016-12-16T16:15:04.546Z,99.99
2016-12-16T16:20:04.475Z,99.99
2016-12-16T16:25:04.390Z,99.99
2016-12-16T16:30:04.926Z,99.99
2016-12-16T16:35:04.654Z,99.99
2016-12-16T16:40:04.407Z,99.99
2016-12-16T16:45:05.014Z,99.99
2016-12-16T16:50:04.657Z,99.99
2016-12-16T16:55:04.550Z,99.99
2016-12-16T17:00:05.513Z,99.99
2016-12-16T17:05:04.551Z,99.99
2016-12-16T17:10:05.315Z,99.99
2016-12-16T17:15:04.983Z,99.99
2016-12-16T17:20:04.491Z,99.99
2016-12-16T17:25:04.632Z,99.99
2016-12-16T17:30:04.991Z,99.99
2016-12-16T17:35:04.801Z,99.99
2016-12-16T17:40:04.423Z,99.99
2016-12-16T17:45:04.525Z,99.99
2016-12-16T17:50:04.891Z,99.99
2016-12-16T17:55:04.453Z,99.99
2016-12-16T18:00:04.976Z,99.99
2016-12-16T18:05:07.379Z,99.99
2016-12-16T18:10:07.162Z,99.99
2016-12-16T18:15:04.486Z,99.99
2016-12-16T18:20:04.849Z,99.99
2016-12-16T18:25:04.409Z,99.99
2016-12-16T18:30:05.365Z,99.99
2016-12-16T18:35:04.723Z,99.99
2016-12-16T18:40:05.262Z,99.99
2016-12-16T18:45:04.693Z,99.99
2016-12-16T18:50:05.151Z,99.99
2016-12-16T18:55:04.526Z,99.99
2016-12-16T19:00:04.478Z,99.99
2016-12-16T19:05:04.487Z,99.99
2016-12-16T19:10:04.924Z,99.99
2016-12-16T19:15:04.857Z,99.99
2016-12-16T19:20:04.853Z,99.99
2016-12-16T19:25:04.886Z,99.99
2016-12-16T19:30:04.664Z,99.99
2016-12-16T19:35:05.341Z,99.99
2016-12-16T19:40:04.464Z,99.99
2016-12-16T19:45:04.643Z,99.99
2016-12-16T19:50:05.278Z,99.99
2016-12-16T19:55:04.463Z,99.99
2016-12-16T20:00:04.821Z,99.99
2016-12-16T20:05:05.037Z,99.99
2016-12-16T20:10:05.073Z,99.99
2016-12-16T20:15:05.144Z,99.99
2016-12-16T20:20:04.977Z,99.99
2016-12-16T20:25:04.739Z,99.99
2016-12-16T20:30:04.864Z,99.99
2016-12-16T20:35:05.047Z,99.99
2016-12-16T20:40:04.390Z,99.99
2016-12-16T20:45:05.382Z,99.99
2016-12-16T20:50:05.191Z,99.99
2016-12-16T20:55:05.139Z,99.99
2016-12-16T21:00:05.360Z,99.99
2016-12-16T21:05:05.194Z,99.99
2016-12-16T21:10:05.310Z,99.99
2016-12-16T21:15:04.944Z,99.99
2016-12-16T21:20:04.734Z,99.99
2016-12-16T21:25:04.236Z,99.99
2016-12-16T21:30:05.103Z,99.99
2016-12-16T21:35:04.963Z,99.99
2016-12-16T21:40:04.897Z,99.99
2016-12-16T21:45:04.551Z,99.99
2016-12-16T21:50:04.956Z,99.99
2016-12-16T21:55:04.654Z,99.99
2016-12-16T22:00:05.130Z,99.99
2016-12-16T22:05:04.759Z,99.99
2016-12-16T22:10:04.597Z,99.99
2016-12-16T22:15:05.044Z,99.99
2016-12-16T22:20:04.537Z,99.99
2016-12-16T22:25:04.889Z,99.99
2016-12-16T22:30:05.139Z,99.99
2016-12-16T22:35:04.814Z,99.99
2016-12-16T22:40:04.931Z,99.99
2016-12-16T22:45:04.992Z,99.99
2016-12-16T22:50:04.470Z,99.99
2016-12-16T22:55:04.955Z,99.99
2016-12-16T23:00:04.670Z,99.99
2016-12-16T23:05:05.227Z,99.99
2016-12-16T23:10:04.655Z,99.99
2016-12-16T23:15:04.634Z,99.99
2016-12-16T23:20:05.111Z,99.99
2016-12-16T23:25:04.907Z,99.99
2016-12-16T23:30:05.148Z,99.99
2016-12-16T23:35:04.931Z,99.99
2016-12-16T23:40:04.995Z,99.99
2016-12-16T23:45:04.752Z,99.99
2016-12-16T23:50:04.339Z,99.99
2016-12-16T23:55:05.048Z,99.99
